sensor_id;sensor_type;location;lat;lon;timestamp;pressure;altitude;pressure_sealevel;temperature;humidity
43147;BME280;28752;48.266;7.402;2023-03-15T00:01:37;99281.03;;;4.11;71.95
43147;BME280;28752;48.266;7.402;2023-03-15T00:04:03;99284.09;;;4.04;72.26
43147;BME280;28752;48.266;7.402;2023-03-15T00:06:33;99285.97;;;4.02;72.72
43147;BME280;28752;48.266;7.402;2023-03-15T00:09:01;99287.56;;;4.05;71.27
43147;BME280;28752;48.266;7.402;2023-03-15T00:11:28;99287.66;;;4.03;72.56
43147;BME280;28752;48.266;7.402;2023-03-15T00:13:57;99295.34;;;3.94;73.64
43147;BME280;28752;48.266;7.402;2023-03-15T00:16:23;99300.78;;;3.78;74.23
43147;BME280;28752;48.266;7.402;2023-03-15T00:18:54;99304.03;;;3.68;73.22
43147;BME280;28752;48.266;7.402;2023-03-15T00:21:20;99305.31;;;3.76;72.17
43147;BME280;28752;48.266;7.402;2023-03-15T00:23:45;99294.19;;;3.85;71.71
43147;BME280;28752;48.266;7.402;2023-03-15T00:26:11;99320.81;;;3.79;71.72
43147;BME280;28752;48.266;7.402;2023-03-15T00:28:37;99323.72;;;3.87;70.56
43147;BME280;28752;48.266;7.402;2023-03-15T00:31:03;99328.56;;;3.80;71.61
43147;BME280;28752;48.266;7.402;2023-03-15T00:33:29;99317.25;;;3.80;70.85
43147;BME280;28752;48.266;7.402;2023-03-15T00:36:01;99331.56;;;3.87;69.84
43147;BME280;28752;48.266;7.402;2023-03-15T00:38:27;99328.13;;;3.86;70.08
43147;BME280;28752;48.266;7.402;2023-03-15T00:40:52;99340.81;;;3.80;70.77
43147;BME280;28752;48.266;7.402;2023-03-15T00:43:17;99336.72;;;3.88;70.42
43147;BME280;28752;48.266;7.402;2023-03-15T00:45:43;99328.66;;;3.79;70.26
43147;BME280;28752;48.266;7.402;2023-03-15T00:48:09;99343.84;;;3.86;69.10
43147;BME280;28752;48.266;7.402;2023-03-15T00:50:35;99354.22;;;3.88;68.61
43147;BME280;28752;48.266;7.402;2023-03-15T00:53:00;99342.91;;;3.74;68.49
43147;BME280;28752;48.266;7.402;2023-03-15T00:55:26;99356.72;;;3.89;69.28
43147;BME280;28752;48.266;7.402;2023-03-15T00:57:51;99362.19;;;3.86;69.41
43147;BME280;28752;48.266;7.402;2023-03-15T01:00:21;99372.88;;;3.83;69.54
43147;BME280;28752;48.266;7.402;2023-03-15T01:02:49;99368.47;;;3.71;69.11
43147;BME280;28752;48.266;7.402;2023-03-15T01:05:16;99373.06;;;3.80;69.88
43147;BME280;28752;48.266;7.402;2023-03-15T01:07:41;99380.63;;;3.85;69.03
43147;BME280;28752;48.266;7.402;2023-03-15T01:10:10;99394.13;;;3.91;69.37
43147;BME280;28752;48.266;7.402;2023-03-15T01:12:36;99394.22;;;3.90;69.08
43147;BME280;28752;48.266;7.402;2023-03-15T01:15:03;99402.72;;;3.81;69.83
43147;BME280;28752;48.266;7.402;2023-03-15T01:17:28;99409.22;;;3.75;70.29
43147;BME280;28752;48.266;7.402;2023-03-15T01:19:54;99409.84;;;3.79;70.82
43147;BME280;28752;48.266;7.402;2023-03-15T01:22:20;99403.53;;;3.68;70.75
43147;BME280;28752;48.266;7.402;2023-03-15T01:24:45;99401.13;;;3.65;71.76
43147;BME280;28752;48.266;7.402;2023-03-15T01:27:11;99408.06;;;3.66;72.63
43147;BME280;28752;48.266;7.402;2023-03-15T01:29:37;99426.38;;;3.66;71.82
43147;BME280;28752;48.266;7.402;2023-03-15T01:32:02;99414.94;;;3.54;72.42
43147;BME280;28752;48.266;7.402;2023-03-15T01:34:28;99418.28;;;3.56;72.22
43147;BME280;28752;48.266;7.402;2023-03-15T01:36:53;99405.91;;;3.46;71.94
43147;BME280;28752;48.266;7.402;2023-03-15T01:39:19;99419.09;;;3.44;73.11
43147;BME280;28752;48.266;7.402;2023-03-15T01:41:44;99423.16;;;3.35;73.60
43147;BME280;28752;48.266;7.402;2023-03-15T01:44:15;99426.13;;;3.44;74.00
43147;BME280;28752;48.266;7.402;2023-03-15T01:46:41;99406.81;;;3.32;73.73
43147;BME280;28752;48.266;7.402;2023-03-15T01:49:24;99422.78;;;3.42;73.90
43147;BME280;28752;48.266;7.402;2023-03-15T01:51:58;99425.03;;;3.33;74.59
43147;BME280;28752;48.266;7.402;2023-03-15T01:54:28;99414.88;;;3.29;74.88
43147;BME280;28752;48.266;7.402;2023-03-15T01:57:05;99421.13;;;3.26;73.91
43147;BME280;28752;48.266;7.402;2023-03-15T01:59:38;99423.41;;;3.18;75.05
43147;BME280;28752;48.266;7.402;2023-03-15T02:02:05;99434.38;;;3.10;74.92
43147;BME280;28752;48.266;7.402;2023-03-15T02:04:38;99442.66;;;3.17;74.64
43147;BME280;28752;48.266;7.402;2023-03-15T02:07:05;99445.03;;;3.07;75.42
43147;BME280;28752;48.266;7.402;2023-03-15T02:12:32;99439.41;;;3.13;76.00
43147;BME280;28752;48.266;7.402;2023-03-15T02:15:00;99435.59;;;3.05;75.41
43147;BME280;28752;48.266;7.402;2023-03-15T02:17:53;99443.22;;;3.22;74.94
43147;BME280;28752;48.266;7.402;2023-03-15T02:23:36;99443.53;;;3.17;74.75
43147;BME280;28752;48.266;7.402;2023-03-15T02:28:47;99439.72;;;3.09;75.25
43147;BME280;28752;48.266;7.402;2023-03-15T02:31:13;99441.94;;;3.00;75.72
43147;BME280;28752;48.266;7.402;2023-03-15T02:33:48;99441.19;;;2.71;76.86
43147;BME280;28752;48.266;7.402;2023-03-15T02:36:16;99445.19;;;2.77;77.17
43147;BME280;28752;48.266;7.402;2023-03-15T02:38:43;99436.78;;;2.72;76.91
43147;BME280;28752;48.266;7.402;2023-03-15T02:41:09;99436.44;;;2.63;76.62
43147;BME280;28752;48.266;7.402;2023-03-15T02:43:35;99456.72;;;2.60;76.94
43147;BME280;28752;48.266;7.402;2023-03-15T02:46:01;99454.91;;;2.60;76.94
43147;BME280;28752;48.266;7.402;2023-03-15T02:48:28;99470.16;;;2.54;76.89
43147;BME280;28752;48.266;7.402;2023-03-15T02:50:55;99468.09;;;2.59;77.26
43147;BME280;28752;48.266;7.402;2023-03-15T02:53:20;99464.25;;;2.50;78.08
43147;BME280;28752;48.266;7.402;2023-03-15T02:55:46;99465.75;;;2.40;79.23
43147;BME280;28752;48.266;7.402;2023-03-15T02:58:11;99478.63;;;2.43;79.23
43147;BME280;28752;48.266;7.402;2023-03-15T03:00:37;99464.53;;;2.31;78.91
43147;BME280;28752;48.266;7.402;2023-03-15T03:03:03;99469.88;;;2.29;79.43
43147;BME280;28752;48.266;7.402;2023-03-15T03:05:28;99476.28;;;2.24;79.39
43147;BME280;28752;48.266;7.402;2023-03-15T03:07:54;99476.47;;;2.21;79.12
43147;BME280;28752;48.266;7.402;2023-03-15T03:10:20;99473.69;;;2.24;79.45
43147;BME280;28752;48.266;7.402;2023-03-15T03:12:45;99477.88;;;2.26;80.39
43147;BME280;28752;48.266;7.402;2023-03-15T03:15:11;99481.97;;;2.16;80.29
43147;BME280;28752;48.266;7.402;2023-03-15T03:17:36;99456.31;;;2.08;79.83
43147;BME280;28752;48.266;7.402;2023-03-15T03:20:07;99484.41;;;2.19;79.68
43147;BME280;28752;48.266;7.402;2023-03-15T03:22:34;99463.47;;;2.05;78.16
43147;BME280;28752;48.266;7.402;2023-03-15T03:25:00;99479.72;;;2.24;76.66
43147;BME280;28752;48.266;7.402;2023-03-15T03:27:25;99475.47;;;2.23;77.88
43147;BME280;28752;48.266;7.402;2023-03-15T03:29:50;99471.53;;;2.30;76.72
43147;BME280;28752;48.266;7.402;2023-03-15T03:32:16;99483.03;;;2.42;75.88
43147;BME280;28752;48.266;7.402;2023-03-15T03:34:41;99473.06;;;2.49;76.63
43147;BME280;28752;48.266;7.402;2023-03-15T03:37:18;99471.81;;;2.40;76.16
43147;BME280;28752;48.266;7.402;2023-03-15T03:39:44;99484.22;;;2.37;76.10
43147;BME280;28752;48.266;7.402;2023-03-15T03:42:10;99472.19;;;2.34;74.89
43147;BME280;28752;48.266;7.402;2023-03-15T03:44:35;99488.06;;;2.45;73.66
43147;BME280;28752;48.266;7.402;2023-03-15T03:47:01;99489.84;;;2.45;75.07
43147;BME280;28752;48.266;7.402;2023-03-15T03:49:26;99478.72;;;2.41;73.71
43147;BME280;28752;48.266;7.402;2023-03-15T03:51:52;99484.72;;;2.43;73.10
43147;BME280;28752;48.266;7.402;2023-03-15T03:54:17;99496.72;;;2.31;72.58
43147;BME280;28752;48.266;7.402;2023-03-15T03:56:47;99497.19;;;2.38;72.08
43147;BME280;28752;48.266;7.402;2023-03-15T03:59:13;99502.91;;;2.45;71.80
43147;BME280;28752;48.266;7.402;2023-03-15T04:01:39;99495.03;;;2.30;72.71
43147;BME280;28752;48.266;7.402;2023-03-15T04:04:06;99500.84;;;2.36;73.28
43147;BME280;28752;48.266;7.402;2023-03-15T04:06:32;99497.66;;;2.30;72.68
43147;BME280;28752;48.266;7.402;2023-03-15T04:08:58;99494.66;;;2.22;72.22
43147;BME280;28752;48.266;7.402;2023-03-15T04:11:23;99496.28;;;2.25;70.45
43147;BME280;28752;48.266;7.402;2023-03-15T04:13:51;99499.25;;;2.33;71.52
43147;BME280;28752;48.266;7.402;2023-03-15T04:16:17;99506.22;;;2.18;73.03
43147;BME280;28752;48.266;7.402;2023-03-15T04:18:43;99504.91;;;2.11;73.61
43147;BME280;28752;48.266;7.402;2023-03-15T04:21:08;99509.84;;;2.01;74.67
43147;BME280;28752;48.266;7.402;2023-03-15T04:23:36;99515.31;;;1.97;75.06
43147;BME280;28752;48.266;7.402;2023-03-15T04:26:01;99517.38;;;1.91;75.36
43147;BME280;28752;48.266;7.402;2023-03-15T04:28:27;99529.28;;;1.81;75.95
43147;BME280;28752;48.266;7.402;2023-03-15T04:30:54;99520.66;;;1.79;76.36
43147;BME280;28752;48.266;7.402;2023-03-15T04:33:25;99515.06;;;1.55;77.27
43147;BME280;28752;48.266;7.402;2023-03-15T04:35:51;99539.06;;;1.62;77.45
43147;BME280;28752;48.266;7.402;2023-03-15T04:38:17;99515.84;;;1.41;77.92
43147;BME280;28752;48.266;7.402;2023-03-15T04:40:42;99538.25;;;1.45;78.56
43147;BME280;28752;48.266;7.402;2023-03-15T04:43:08;99537.66;;;1.40;78.96
43147;BME280;28752;48.266;7.402;2023-03-15T04:45:33;99539.94;;;1.46;79.37
43147;BME280;28752;48.266;7.402;2023-03-15T04:47:59;99537.66;;;1.40;80.20
43147;BME280;28752;48.266;7.402;2023-03-15T04:50:26;99530.09;;;1.35;80.63
43147;BME280;28752;48.266;7.402;2023-03-15T04:52:52;99530.19;;;1.34;80.41
43147;BME280;28752;48.266;7.402;2023-03-15T04:55:17;99525.78;;;1.34;80.55
43147;BME280;28752;48.266;7.402;2023-03-15T04:57:43;99529.75;;;1.26;81.16
43147;BME280;28752;48.266;7.402;2023-03-15T05:00:09;99534.78;;;1.29;80.15
43147;BME280;28752;48.266;7.402;2023-03-15T05:02:37;99530.25;;;1.16;80.37
43147;BME280;28752;48.266;7.402;2023-03-15T05:05:06;99529.00;;;1.23;81.42
43147;BME280;28752;48.266;7.402;2023-03-15T05:07:33;99534.78;;;1.13;81.12
43147;BME280;28752;48.266;7.402;2023-03-15T05:09:59;99536.72;;;1.09;81.72
43147;BME280;28752;48.266;7.402;2023-03-15T05:12:26;99527.13;;;1.10;80.77
43147;BME280;28752;48.266;7.402;2023-03-15T05:14:51;99542.72;;;1.11;81.08
43147;BME280;28752;48.266;7.402;2023-03-15T05:17:16;99530.59;;;1.10;81.01
43147;BME280;28752;48.266;7.402;2023-03-15T05:19:42;99529.47;;;0.98;80.93
43147;BME280;28752;48.266;7.402;2023-03-15T05:22:07;99549.22;;;0.86;80.90
43147;BME280;28752;48.266;7.402;2023-03-15T05:24:33;99540.16;;;0.94;80.85
43147;BME280;28752;48.266;7.402;2023-03-15T05:26:58;99543.94;;;1.04;81.14
43147;BME280;28752;48.266;7.402;2023-03-15T05:29:23;99542.75;;;0.94;80.97
43147;BME280;28752;48.266;7.402;2023-03-15T05:31:49;99556.56;;;0.96;81.13
43147;BME280;28752;48.266;7.402;2023-03-15T05:34:17;99551.91;;;0.85;81.48
43147;BME280;28752;48.266;7.402;2023-03-15T05:36:42;99558.97;;;0.83;81.47
43147;BME280;28752;48.266;7.402;2023-03-15T05:39:07;99551.97;;;0.83;81.41
43147;BME280;28752;48.266;7.402;2023-03-15T05:41:33;99556.13;;;0.87;81.47
43147;BME280;28752;48.266;7.402;2023-03-15T05:43:58;99553.09;;;0.79;81.75
43147;BME280;28752;48.266;7.402;2023-03-15T05:46:24;99560.41;;;0.88;81.67
43147;BME280;28752;48.266;7.402;2023-03-15T05:48:49;99555.03;;;0.92;81.90
43147;BME280;28752;48.266;7.402;2023-03-15T05:51:15;99530.28;;;0.83;82.07
43147;BME280;28752;48.266;7.402;2023-03-15T05:53:41;99555.97;;;0.91;81.89
43147;BME280;28752;48.266;7.402;2023-03-15T05:56:07;99552.09;;;0.98;81.83
43147;BME280;28752;48.266;7.402;2023-03-15T05:58:32;99564.22;;;0.99;81.75
43147;BME280;28752;48.266;7.402;2023-03-15T06:00:58;99563.13;;;1.03;81.48
43147;BME280;28752;48.266;7.402;2023-03-15T06:03:26;99560.75;;;0.98;81.38
43147;BME280;28752;48.266;7.402;2023-03-15T06:05:51;99572.13;;;1.13;81.00
43147;BME280;28752;48.266;7.402;2023-03-15T06:08:17;99577.81;;;0.88;81.69
43147;BME280;28752;48.266;7.402;2023-03-15T06:10:42;99583.91;;;1.04;81.28
43147;BME280;28752;48.266;7.402;2023-03-15T06:13:07;99587.75;;;1.31;80.68
43147;BME280;28752;48.266;7.402;2023-03-15T06:15:33;99594.97;;;1.57;79.95
43147;BME280;28752;48.266;7.402;2023-03-15T06:17:58;99588.44;;;1.97;77.30
43147;BME280;28752;48.266;7.402;2023-03-15T06:20:24;99589.53;;;2.53;75.66
43147;BME280;28752;48.266;7.402;2023-03-15T06:22:49;99579.13;;;2.96;73.66
43147;BME280;28752;48.266;7.402;2023-03-15T06:25:14;99597.31;;;3.83;70.92
43147;BME280;28752;48.266;7.402;2023-03-15T06:27:40;99600.00;;;5.00;67.71
43147;BME280;28752;48.266;7.402;2023-03-15T06:30:06;99591.09;;;6.14;63.71
43147;BME280;28752;48.266;7.402;2023-03-15T06:32:32;99597.59;;;6.90;61.01
43147;BME280;28752;48.266;7.402;2023-03-15T06:34:57;99612.69;;;8.00;57.62
43147;BME280;28752;48.266;7.402;2023-03-15T06:37:22;99611.72;;;8.87;55.41
43147;BME280;28752;48.266;7.402;2023-03-15T06:39:48;99597.38;;;9.51;52.38
43147;BME280;28752;48.266;7.402;2023-03-15T06:42:15;99608.31;;;9.87;51.59
43147;BME280;28752;48.266;7.402;2023-03-15T06:44:41;99595.38;;;10.53;49.41
43147;BME280;28752;48.266;7.402;2023-03-15T06:47:07;99605.84;;;10.44;49.88
43147;BME280;28752;48.266;7.402;2023-03-15T06:49:33;99604.56;;;11.15;47.86
43147;BME280;28752;48.266;7.402;2023-03-15T06:51:59;99613.72;;;11.31;47.36
43147;BME280;28752;48.266;7.402;2023-03-15T06:54:24;99611.72;;;11.88;46.00
43147;BME280;28752;48.266;7.402;2023-03-15T06:56:50;99617.59;;;12.28;44.84
43147;BME280;28752;48.266;7.402;2023-03-15T06:59:16;99618.13;;;11.96;45.85
43147;BME280;28752;48.266;7.402;2023-03-15T07:01:41;99606.25;;;12.00;44.74
43147;BME280;28752;48.266;7.402;2023-03-15T07:04:06;99620.03;;;12.03;43.94
43147;BME280;28752;48.266;7.402;2023-03-15T07:06:33;99598.75;;;11.95;44.14
43147;BME280;28752;48.266;7.402;2023-03-15T07:08:59;99632.94;;;12.16;43.47
43147;BME280;28752;48.266;7.402;2023-03-15T07:11:24;99627.88;;;12.41;42.72
43147;BME280;28752;48.266;7.402;2023-03-15T07:13:50;99633.63;;;12.36;43.29
43147;BME280;28752;48.266;7.402;2023-03-15T07:16:15;99631.63;;;12.56;43.38
43147;BME280;28752;48.266;7.402;2023-03-15T07:18:40;99636.41;;;12.71;43.55
43147;BME280;28752;48.266;7.402;2023-03-15T07:21:06;99641.66;;;12.89;43.41
43147;BME280;28752;48.266;7.402;2023-03-15T07:23:34;99641.81;;;12.87;43.08
43147;BME280;28752;48.266;7.402;2023-03-15T07:25:59;99619.88;;;12.59;43.20
43147;BME280;28752;48.266;7.402;2023-03-15T07:28:26;99635.88;;;12.49;44.64
43147;BME280;28752;48.266;7.402;2023-03-15T07:30:58;99639.59;;;11.74;46.44
43147;BME280;28752;48.266;7.402;2023-03-15T07:33:25;99636.56;;;11.69;46.53
43147;BME280;28752;48.266;7.402;2023-03-15T07:35:51;99649.00;;;10.74;47.82
43147;BME280;28752;48.266;7.402;2023-03-15T07:38:22;99645.19;;;9.89;49.10
43147;BME280;28752;48.266;7.402;2023-03-15T07:40:48;99641.50;;;9.60;50.58
43147;BME280;28752;48.266;7.402;2023-03-15T07:43:13;99640.59;;;9.10;51.55
43147;BME280;28752;48.266;7.402;2023-03-15T07:45:38;99622.53;;;8.63;52.79
43147;BME280;28752;48.266;7.402;2023-03-15T07:48:04;99642.41;;;8.88;53.95
43147;BME280;28752;48.266;7.402;2023-03-15T07:50:29;99623.72;;;8.05;55.90
43147;BME280;28752;48.266;7.402;2023-03-15T07:52:55;99628.91;;;8.28;57.92
43147;BME280;28752;48.266;7.402;2023-03-15T07:55:20;99641.25;;;8.27;59.00
43147;BME280;28752;48.266;7.402;2023-03-15T07:57:45;99627.34;;;8.25;58.07
43147;BME280;28752;48.266;7.402;2023-03-15T08:00:11;99616.25;;;8.85;58.40
43147;BME280;28752;48.266;7.402;2023-03-15T08:02:39;99622.63;;;9.34;57.75
43147;BME280;28752;48.266;7.402;2023-03-15T08:05:05;99614.00;;;9.32;57.23
43147;BME280;28752;48.266;7.402;2023-03-15T08:07:31;99626.81;;;9.37;56.60
43147;BME280;28752;48.266;7.402;2023-03-15T08:09:56;99633.00;;;9.26;56.90
43147;BME280;28752;48.266;7.402;2023-03-15T08:12:25;99623.84;;;9.30;57.24
43147;BME280;28752;48.266;7.402;2023-03-15T08:14:51;99626.25;;;9.02;57.43
43147;BME280;28752;48.266;7.402;2023-03-15T08:17:17;99618.06;;;8.84;58.15
43147;BME280;28752;48.266;7.402;2023-03-15T08:19:43;99631.66;;;8.80;57.74
43147;BME280;28752;48.266;7.402;2023-03-15T08:22:09;99632.44;;;8.70;57.53
43147;BME280;28752;48.266;7.402;2023-03-15T08:24:35;99640.38;;;8.70;57.94
43147;BME280;28752;48.266;7.402;2023-03-15T08:27:00;99637.13;;;8.67;58.41
43147;BME280;28752;48.266;7.402;2023-03-15T08:29:26;99649.19;;;8.60;57.42
43147;BME280;28752;48.266;7.402;2023-03-15T08:31:52;99646.72;;;8.68;57.79
43147;BME280;28752;48.266;7.402;2023-03-15T08:34:17;99648.16;;;8.72;57.88
43147;BME280;28752;48.266;7.402;2023-03-15T08:36:45;99647.63;;;8.99;58.00
43147;BME280;28752;48.266;7.402;2023-03-15T08:39:10;99644.91;;;9.11;57.45
43147;BME280;28752;48.266;7.402;2023-03-15T08:41:36;99641.06;;;9.24;55.77
43147;BME280;28752;48.266;7.402;2023-03-15T08:44:01;99647.84;;;9.38;55.30
43147;BME280;28752;48.266;7.402;2023-03-15T08:46:27;99645.00;;;9.61;54.10
43147;BME280;28752;48.266;7.402;2023-03-15T08:48:52;99654.19;;;9.67;52.46
43147;BME280;28752;48.266;7.402;2023-03-15T08:51:18;99657.16;;;9.83;54.23
43147;BME280;28752;48.266;7.402;2023-03-15T08:53:44;99660.06;;;9.70;53.65
43147;BME280;28752;48.266;7.402;2023-03-15T08:56:09;99662.44;;;9.73;53.20
43147;BME280;28752;48.266;7.402;2023-03-15T08:58:35;99657.47;;;10.00;52.82
43147;BME280;28752;48.266;7.402;2023-03-15T09:01:00;99672.78;;;10.16;53.05
43147;BME280;28752;48.266;7.402;2023-03-15T09:03:26;99677.13;;;10.17;52.82
43147;BME280;28752;48.266;7.402;2023-03-15T09:05:55;99674.78;;;10.43;52.41
43147;BME280;28752;48.266;7.402;2023-03-15T09:08:21;99676.19;;;10.47;52.79
43147;BME280;28752;48.266;7.402;2023-03-15T09:10:55;99668.94;;;10.49;50.77
43147;BME280;28752;48.266;7.402;2023-03-15T09:13:21;99676.84;;;10.20;51.06
43147;BME280;28752;48.266;7.402;2023-03-15T09:15:51;99679.81;;;10.36;50.67
43147;BME280;28752;48.266;7.402;2023-03-15T09:18:17;99684.38;;;10.14;51.82
43147;BME280;28752;48.266;7.402;2023-03-15T09:20:42;99681.28;;;10.00;52.06
43147;BME280;28752;48.266;7.402;2023-03-15T09:23:08;99687.59;;;9.68;51.96
43147;BME280;28752;48.266;7.402;2023-03-15T09:25:33;99679.56;;;9.48;51.69
43147;BME280;28752;48.266;7.402;2023-03-15T09:28:01;99688.06;;;9.52;51.86
43147;BME280;28752;48.266;7.402;2023-03-15T09:30:27;99701.94;;;9.44;52.69
43147;BME280;28752;48.266;7.402;2023-03-15T09:32:53;99698.47;;;9.43;52.48
43147;BME280;28752;48.266;7.402;2023-03-15T09:35:19;99688.50;;;9.26;52.94
43147;BME280;28752;48.266;7.402;2023-03-15T09:37:46;99695.84;;;9.22;52.66
43147;BME280;28752;48.266;7.402;2023-03-15T09:42:58;99699.81;;;9.38;51.95
43147;BME280;28752;48.266;7.402;2023-03-15T09:45:47;99690.31;;;9.25;51.95
43147;BME280;28752;48.266;7.402;2023-03-15T09:48:20;99696.78;;;9.12;51.99
43147;BME280;28752;48.266;7.402;2023-03-15T09:50:53;99694.25;;;9.10;53.69
43147;BME280;28752;48.266;7.402;2023-03-15T09:53:28;99698.50;;;9.22;53.40
43147;BME280;28752;48.266;7.402;2023-03-15T09:55:56;99694.56;;;9.17;52.93
43147;BME280;28752;48.266;7.402;2023-03-15T09:58:27;99706.94;;;9.16;51.55
43147;BME280;28752;48.266;7.402;2023-03-15T10:01:02;99699.97;;;9.15;51.61
43147;BME280;28752;48.266;7.402;2023-03-15T10:03:41;99703.78;;;9.22;51.81
43147;BME280;28752;48.266;7.402;2023-03-15T10:06:18;99702.44;;;9.28;52.20
43147;BME280;28752;48.266;7.402;2023-03-15T10:08:45;99700.22;;;9.33;51.00
43147;BME280;28752;48.266;7.402;2023-03-15T10:11:24;99695.00;;;9.43;51.63
43147;BME280;28752;48.266;7.402;2023-03-15T10:14:06;99705.59;;;9.53;51.85
43147;BME280;28752;48.266;7.402;2023-03-15T10:16:39;99704.06;;;9.50;50.05
43147;BME280;28752;48.266;7.402;2023-03-15T10:19:43;99697.59;;;9.64;50.27
43147;BME280;28752;48.266;7.402;2023-03-15T10:25:00;99697.44;;;10.06;51.21
43147;BME280;28752;48.266;7.402;2023-03-15T10:27:46;99691.84;;;9.59;48.80
43147;BME280;28752;48.266;7.402;2023-03-15T10:30:17;99687.47;;;9.79;50.41
43147;BME280;28752;48.266;7.402;2023-03-15T10:32:48;99683.91;;;10.00;49.96
43147;BME280;28752;48.266;7.402;2023-03-15T10:35:17;99675.72;;;10.12;48.59
43147;BME280;28752;48.266;7.402;2023-03-15T10:37:43;99688.59;;;10.37;48.39
43147;BME280;28752;48.266;7.402;2023-03-15T10:40:11;99684.66;;;10.21;45.21
43147;BME280;28752;48.266;7.402;2023-03-15T10:42:44;99684.16;;;10.47;46.21
43147;BME280;28752;48.266;7.402;2023-03-15T10:45:22;99685.25;;;10.44;46.75
43147;BME280;28752;48.266;7.402;2023-03-15T10:47:49;99686.66;;;10.39;45.27
43147;BME280;28752;48.266;7.402;2023-03-15T10:50:24;99681.78;;;10.63;45.66
43147;BME280;28752;48.266;7.402;2023-03-15T10:52:54;99688.91;;;10.63;46.46
43147;BME280;28752;48.266;7.402;2023-03-15T10:55:29;99691.25;;;10.37;45.48
43147;BME280;28752;48.266;7.402;2023-03-15T10:57:58;99699.56;;;10.32;44.09
43147;BME280;28752;48.266;7.402;2023-03-15T11:00:34;99682.75;;;10.33;43.13
43147;BME280;28752;48.266;7.402;2023-03-15T11:03:06;99668.88;;;10.00;42.02
43147;BME280;28752;48.266;7.402;2023-03-15T11:05:41;99661.19;;;9.87;43.13
43147;BME280;28752;48.266;7.402;2023-03-15T11:08:18;99660.47;;;9.75;42.66
43147;BME280;28752;48.266;7.402;2023-03-15T11:10:45;99658.41;;;9.89;44.48
43147;BME280;28752;48.266;7.402;2023-03-15T11:13:22;99662.56;;;9.72;44.00
43147;BME280;28752;48.266;7.402;2023-03-15T11:18:29;99658.88;;;10.13;43.50
43147;BME280;28752;48.266;7.402;2023-03-15T11:20:56;99655.44;;;10.42;43.26
43147;BME280;28752;48.266;7.402;2023-03-15T11:23:32;99669.09;;;10.38;43.49
43147;BME280;28752;48.266;7.402;2023-03-15T11:25:58;99659.63;;;10.35;44.57
43147;BME280;28752;48.266;7.402;2023-03-15T11:28:30;99662.53;;;10.52;43.68
43147;BME280;28752;48.266;7.402;2023-03-15T11:30:57;99656.53;;;10.59;44.13
43147;BME280;28752;48.266;7.402;2023-03-15T11:33:36;99653.91;;;10.59;44.87
43147;BME280;28752;48.266;7.402;2023-03-15T11:36:07;99650.13;;;10.81;44.10
43147;BME280;28752;48.266;7.402;2023-03-15T11:38:39;99645.28;;;10.57;43.92
43147;BME280;28752;48.266;7.402;2023-03-15T11:46:51;99648.50;;;11.08;43.16
43147;BME280;28752;48.266;7.402;2023-03-15T11:51:58;99652.38;;;10.57;40.16
43147;BME280;28752;48.266;7.402;2023-03-15T11:54:27;99653.78;;;10.71;41.22
43147;BME280;28752;48.266;7.402;2023-03-15T12:00:16;99653.88;;;10.89;43.67
43147;BME280;28752;48.266;7.402;2023-03-15T12:04:46;99635.13;;;11.10;43.15
43147;BME280;28752;48.266;7.402;2023-03-15T12:09:49;99650.41;;;10.78;41.54
43147;BME280;28752;48.266;7.402;2023-03-15T12:17:58;99637.31;;;10.67;40.95
43147;BME280;28752;48.266;7.402;2023-03-15T12:20:41;99646.50;;;10.73;40.97
43147;BME280;28752;48.266;7.402;2023-03-15T12:25:54;99632.00;;;10.67;41.80
43147;BME280;28752;48.266;7.402;2023-03-15T12:28:36;99624.78;;;10.59;41.72
43147;BME280;28752;48.266;7.402;2023-03-15T12:31:04;99625.31;;;10.73;41.92
43147;BME280;28752;48.266;7.402;2023-03-15T12:33:33;99626.53;;;10.98;41.82
43147;BME280;28752;48.266;7.402;2023-03-15T12:36:15;99597.19;;;11.09;41.26
43147;BME280;28752;48.266;7.402;2023-03-15T12:38:53;99612.06;;;11.20;40.14
43147;BME280;28752;48.266;7.402;2023-03-15T12:41:35;99611.69;;;11.15;39.56
43147;BME280;28752;48.266;7.402;2023-03-15T12:49:13;99604.81;;;11.78;40.15
43147;BME280;28752;48.266;7.402;2023-03-15T12:51:58;99606.00;;;11.93;39.14
43147;BME280;28752;48.266;7.402;2023-03-15T12:54:29;99598.16;;;11.91;39.97
43147;BME280;28752;48.266;7.402;2023-03-15T12:57:00;99601.56;;;11.84;38.93
43147;BME280;28752;48.266;7.402;2023-03-15T13:02:24;99600.25;;;11.98;38.97
43147;BME280;28752;48.266;7.402;2023-03-15T13:05:19;99598.81;;;12.03;38.47
43147;BME280;28752;48.266;7.402;2023-03-15T13:10:40;99596.97;;;12.22;39.93
43147;BME280;28752;48.266;7.402;2023-03-15T13:19:00;99597.94;;;12.39;36.78
43147;BME280;28752;48.266;7.402;2023-03-15T13:21:39;99597.78;;;12.58;36.81
43147;BME280;28752;48.266;7.402;2023-03-15T13:24:19;99588.22;;;12.48;36.39
43147;BME280;28752;48.266;7.402;2023-03-15T13:26:58;99597.38;;;12.27;38.77
43147;BME280;28752;48.266;7.402;2023-03-15T13:29:31;99606.09;;;12.19;38.83
43147;BME280;28752;48.266;7.402;2023-03-15T13:32:07;99604.19;;;11.94;38.38
43147;BME280;28752;48.266;7.402;2023-03-15T13:34:35;99603.63;;;11.90;38.21
43147;BME280;28752;48.266;7.402;2023-03-15T13:37:01;99599.63;;;12.04;38.49
43147;BME280;28752;48.266;7.402;2023-03-15T13:39:32;99609.91;;;11.71;39.37
43147;BME280;28752;48.266;7.402;2023-03-15T13:42:18;99593.19;;;11.61;40.19
43147;BME280;28752;48.266;7.402;2023-03-15T13:44:44;99586.16;;;11.97;39.77
43147;BME280;28752;48.266;7.402;2023-03-15T13:47:28;99594.63;;;12.01;39.92
43147;BME280;28752;48.266;7.402;2023-03-15T13:49:55;99591.47;;;12.15;39.32
43147;BME280;28752;48.266;7.402;2023-03-15T13:52:30;99594.63;;;12.19;38.46
43147;BME280;28752;48.266;7.402;2023-03-15T13:54:55;99570.06;;;11.99;39.89
43147;BME280;28752;48.266;7.402;2023-03-15T13:57:22;99589.56;;;12.07;39.76
43147;BME280;28752;48.266;7.402;2023-03-15T14:00:00;99573.03;;;11.96;38.70
43147;BME280;28752;48.266;7.402;2023-03-15T14:02:37;99563.22;;;11.78;39.52
43147;BME280;28752;48.266;7.402;2023-03-15T14:05:17;99578.75;;;11.73;40.17
43147;BME280;28752;48.266;7.402;2023-03-15T14:08:05;99570.44;;;11.86;40.06
43147;BME280;28752;48.266;7.402;2023-03-15T14:10:38;99576.72;;;11.85;39.71
43147;BME280;28752;48.266;7.402;2023-03-15T14:13:26;99582.50;;;11.70;39.33